Cashion, Arizona
Current Conditions -  °F | °C
As of 9:47 AM on Friday 19 Dec 2014 (Local Time) from KGYR Reporting Station
Scattered Clouds Scattered Clouds  
Wind Chill: 50°   Ceiling: Unl
Heat Index: 50°   Visibility: 10mi
Dew Point: 43°   Wind: 5mph
Humidity: 76%   Direction: NA
Pressure: 30.26"   Gusts: NA
Location:  33.44°N, 112.3°W
Report Text: KGYR 191647Z VRB04KT 10SM SCT250 10/06 A3026
Loading
Personal Weather Stations






























Interactive Weather Map New forecast layout! Learn more

10-Day Weather Forecast

Advertisements
Track Severe Weather on mobile